Weather at Olmué Airport

Public forecast

Using degrees Celsius for public forecast. Weather courtesy of forecast.io.

Closest aviation weather report (METAR) to Olmué Airport

Closest report is Viña del mar Airport, 15.7 nm (29.1 km) W. Retrieved 2021/09/27 05:00 UTC (57 minutes ago):

SCVM 270500Z 14002KT CAVOK 08/06 Q1018

Closest aviation forecast (TAF) to Olmué Airport

Closest forecast is Viña del mar Airport, 15.7 nm (29.1 km) W. Retrieved 2021-09-27 00:03 UTC (6 hours ago):

TAF SCVM 262200Z 2700/2724 16004KT CAVOK TX22/2718Z TN10/2710Z BECMG 2716/2718 32010KT